createdAt,value
2019-04-22T00:01:59.380Z,6.97
2019-04-22T00:04:42.145Z,6.92
2019-04-22T00:07:15.623Z,6.90
2019-04-22T00:09:53.011Z,6.88
2019-04-22T00:12:19.843Z,6.93
2019-04-22T00:14:47.990Z,6.96
2019-04-22T00:17:30.372Z,7.00
2019-04-22T00:20:00.454Z,7.03
2019-04-22T00:22:22.237Z,7.07
2019-04-22T00:24:55.462Z,6.94
2019-04-22T00:27:28.157Z,6.95
2019-04-22T00:30:13.823Z,6.90
2019-04-22T00:32:32.276Z,6.94
2019-04-22T00:35:04.183Z,6.94
2019-04-22T00:37:40.161Z,6.80
2019-04-22T00:40:07.136Z,6.84
2019-04-22T00:42:37.509Z,6.79
2019-04-22T00:45:06.135Z,6.75
2019-04-22T00:55:11.881Z,6.58
2019-04-22T00:57:41.805Z,6.58
2019-04-22T01:00:11.565Z,6.58
2019-04-22T01:02:46.188Z,6.57
2019-04-22T01:05:17.014Z,6.48
2019-04-22T01:07:35.618Z,6.50
2019-04-22T01:10:11.562Z,6.63
2019-04-22T01:12:39.997Z,6.32
2019-04-22T01:15:21.497Z,6.37
2019-04-22T01:17:44.955Z,6.34
2019-04-22T01:20:38.437Z,6.32
2019-04-22T01:22:38.126Z,6.41
2019-04-22T01:25:08.847Z,6.45
2019-04-22T01:27:41.564Z,6.47
2019-04-22T01:30:07.144Z,6.47
2019-04-22T01:32:31.078Z,6.44
2019-04-22T01:35:08.455Z,6.40
2019-04-22T01:37:45.745Z,6.33
2019-04-22T01:40:24.131Z,6.35
2019-04-22T01:42:55.932Z,6.21
2019-04-22T01:45:26.744Z,6.18
2019-04-22T01:47:48.871Z,6.13
2019-04-22T01:50:18.959Z,5.80
2019-04-22T01:52:59.168Z,5.96
2019-04-22T01:55:32.347Z,5.93
2019-04-22T01:57:53.331Z,5.91
2019-04-22T02:00:16.440Z,5.90
2019-04-22T02:02:57.505Z,5.93
2019-04-22T02:05:22.866Z,5.92
2019-04-22T02:07:56.101Z,5.81
2019-04-22T02:10:34.528Z,5.71
2019-04-22T02:13:03.085Z,5.66
2019-04-22T02:15:31.636Z,5.54
2019-04-22T02:18:01.239Z,5.52
2019-04-22T02:20:31.112Z,5.42
2019-04-22T02:23:43.286Z,5.31
2019-04-22T02:25:56.445Z,5.19
2019-04-22T02:28:25.646Z,5.18
2019-04-22T02:31:13.891Z,5.24
2019-04-22T02:36:08.101Z,5.35
2019-04-22T02:38:47.069Z,5.41
2019-04-22T02:43:51.855Z,5.41
2019-04-22T02:46:13.455Z,5.43
2019-04-22T02:48:48.247Z,5.48
2019-04-22T02:51:06.090Z,5.52
2019-04-22T02:54:02.081Z,5.53
2019-04-22T02:56:12.246Z,5.48
2019-04-22T03:01:06.104Z,5.34
2019-04-22T03:06:24.454Z,5.29
2019-04-22T03:11:16.153Z,5.23
2019-04-22T03:13:47.359Z,5.03
2019-04-22T03:18:46.901Z,5.14
2019-04-22T03:21:02.343Z,5.04
2019-04-22T03:28:51.706Z,4.83
2019-04-22T03:31:55.138Z,4.82
2019-04-22T03:34:37.643Z,4.76
2019-04-22T03:41:45.060Z,4.78
2019-04-22T03:44:10.526Z,4.74
2019-04-22T03:46:35.973Z,4.80
2019-04-22T03:49:12.159Z,4.77
2019-04-22T03:51:38.922Z,4.78
2019-04-22T03:54:11.047Z,4.77
2019-04-22T03:59:11.510Z,4.75
2019-04-22T04:01:36.975Z,4.78
2019-04-22T04:04:09.360Z,4.86
2019-04-22T04:06:43.223Z,4.90
2019-04-22T04:09:09.549Z,4.88
2019-04-22T04:11:49.927Z,4.95
2019-04-22T04:16:45.939Z,5.08
2019-04-22T04:19:08.405Z,5.20
2019-04-22T04:21:32.934Z,5.30
2019-04-22T04:24:32.322Z,5.40
2019-04-22T04:26:46.019Z,5.50
2019-04-22T04:29:26.047Z,5.60
2019-04-22T04:31:48.438Z,5.60
2019-04-22T04:34:28.297Z,5.60
2019-04-22T04:36:37.145Z,5.71
2019-04-22T04:39:07.277Z,5.88
2019-04-22T04:44:10.827Z,6.22
2019-04-22T04:46:47.403Z,6.17
2019-04-22T04:49:23.994Z,6.45
2019-04-22T04:51:44.000Z,6.63
2019-04-22T05:01:45.084Z,7.13
2019-04-22T05:04:15.056Z,7.10
2019-04-22T05:12:03.447Z,7.66
2019-04-22T05:14:09.544Z,7.69
2019-04-22T05:16:51.549Z,7.83
2019-04-22T05:21:38.528Z,8.07
2019-04-22T05:24:19.380Z,8.38
2019-04-22T05:26:39.761Z,8.77
2019-04-22T05:29:14.479Z,9.04
2019-04-22T05:31:49.623Z,9.23
2019-04-22T05:34:08.229Z,9.23
2019-04-22T05:36:40.311Z,9.25
2019-04-22T05:39:11.135Z,9.41
2019-04-22T05:41:43.367Z,9.51
2019-04-22T05:46:42.210Z,9.69
2019-04-22T05:49:22.529Z,9.90
2019-04-22T05:51:41.979Z,9.93
2019-04-22T05:54:14.492Z,10.12
2019-04-22T05:56:40.967Z,10.24
2019-04-22T05:59:32.638Z,10.17
2019-04-22T06:01:52.050Z,10.05
2019-04-22T06:04:14.748Z,10.25
2019-04-22T06:06:42.944Z,10.29
2019-04-22T06:09:19.142Z,10.65
2019-04-22T06:11:36.096Z,10.93
2019-04-22T06:14:20.037Z,11.04
2019-04-22T06:17:02.000Z,11.29
2019-04-22T06:19:38.644Z,11.51
2019-04-22T06:22:00.808Z,11.67
2019-04-22T06:27:08.313Z,11.97
2019-04-22T06:29:25.062Z,11.77
2019-04-22T06:32:18.566Z,12.00
2019-04-22T06:34:30.598Z,12.00
2019-04-22T06:42:01.130Z,12.38
2019-04-22T06:44:29.782Z,12.35
2019-04-22T06:47:27.405Z,12.56
2019-04-22T06:49:38.375Z,12.47
2019-04-22T06:52:09.151Z,12.75
2019-04-22T06:54:32.885Z,13.75
2019-04-22T06:59:33.078Z,16.26
2019-04-22T07:02:10.057Z,17.48
2019-04-22T07:04:33.855Z,18.23
2019-04-22T07:07:08.400Z,19.01
2019-04-22T07:09:42.788Z,19.24
2019-04-22T07:12:11.532Z,19.96
2019-04-22T07:14:35.517Z,20.70
2019-04-22T07:17:07.321Z,20.32
2019-04-22T07:19:41.062Z,19.59
2019-04-22T07:22:13.841Z,20.26
2019-04-22T07:27:12.889Z,22.37
2019-04-22T07:29:40.381Z,22.23
2019-04-22T07:32:47.773Z,21.99
2019-04-22T07:34:40.755Z,22.17
2019-04-22T07:37:24.210Z,23.01
2019-04-22T07:39:40.989Z,23.97
2019-04-22T07:42:12.056Z,21.67
2019-04-22T07:44:45.149Z,22.92
2019-04-22T07:47:18.833Z,23.23
2019-04-22T07:49:48.941Z,24.11
2019-04-22T07:52:21.152Z,23.49
2019-04-22T07:54:46.758Z,24.69
2019-04-22T07:57:21.278Z,25.73
2019-04-22T07:59:52.394Z,26.39
2019-04-22T08:02:14.578Z,26.19
2019-04-22T08:05:01.952Z,25.94
2019-04-22T08:07:18.324Z,24.79
2019-04-22T08:10:02.991Z,25.76
2019-04-22T08:12:18.814Z,25.56
2019-04-22T08:14:55.137Z,26.00
2019-04-22T08:17:46.551Z,25.68
2019-04-22T08:19:57.837Z,25.97
2019-04-22T08:22:20.712Z,27.02
2019-04-22T08:24:57.834Z,27.56
2019-04-22T08:27:22.529Z,28.00
2019-04-22T08:30:02.133Z,28.09
2019-04-22T08:32:28.609Z,27.53
2019-04-22T08:34:55.645Z,28.04
2019-04-22T08:40:03.591Z,29.42
2019-04-22T08:42:35.175Z,27.97
2019-04-22T08:45:10.657Z,28.62
2019-04-22T08:47:32.279Z,29.32
2019-04-22T08:50:04.847Z,29.09
2019-04-22T08:55:07.797Z,28.89
2019-04-22T09:00:02.872Z,29.91
2019-04-22T09:05:01.507Z,27.62
2019-04-22T09:07:40.729Z,28.45
2019-04-22T09:10:05.215Z,29.80
2019-04-22T09:15:08.634Z,29.03
2019-04-22T09:17:34.911Z,30.63
2019-04-22T09:20:08.883Z,29.87
2019-04-22T09:22:36.266Z,30.76
2019-04-22T09:25:26.951Z,31.34
2019-04-22T09:30:15.135Z,33.21
2019-04-22T09:35:09.768Z,32.28
2019-04-22T09:42:44.026Z,32.13
2019-04-22T09:45:11.604Z,31.57
2019-04-22T09:47:53.835Z,32.41
2019-04-22T09:50:16.405Z,32.23
2019-04-22T09:52:51.435Z,31.61
2019-04-22T09:57:44.954Z,31.27
2019-04-22T10:00:13.922Z,30.59
2019-04-22T10:02:48.451Z,32.97
2019-04-22T10:07:50.820Z,33.58
2019-04-22T10:10:17.123Z,33.49
2019-04-22T10:13:08.540Z,34.76
2019-04-22T10:15:18.606Z,34.62
2019-04-22T10:17:54.480Z,34.66
2019-04-22T10:20:22.242Z,35.81
2019-04-22T10:23:05.892Z,36.41
2019-04-22T10:25:21.577Z,36.18
2019-04-22T10:27:55.226Z,37.61
2019-04-22T10:30:32.148Z,35.54
2019-04-22T10:33:02.796Z,34.36
2019-04-22T10:35:15.486Z,35.30
2019-04-22T10:37:40.660Z,36.18
2019-04-22T10:40:19.613Z,35.13
2019-04-22T10:42:49.495Z,36.97
2019-04-22T10:45:18.649Z,37.32
2019-04-22T10:47:48.002Z,37.82
2019-04-22T10:50:18.592Z,34.58
2019-04-22T10:52:47.754Z,34.29
2019-04-22T10:55:17.291Z,36.28
2019-04-22T10:57:46.515Z,33.13
2019-04-22T11:00:15.850Z,35.03
2019-04-22T11:02:45.721Z,36.72
2019-04-22T11:05:14.688Z,36.77
2019-04-22T11:07:51.450Z,35.97
2019-04-22T11:10:29.093Z,34.78
2019-04-22T11:12:45.388Z,32.53
2019-04-22T11:15:15.840Z,34.31
2019-04-22T11:17:45.120Z,35.84
2019-04-22T11:20:15.555Z,36.81
2019-04-22T11:22:44.739Z,36.58
2019-04-22T11:25:13.903Z,36.74
2019-04-22T11:27:44.388Z,37.46
2019-04-22T11:30:18.172Z,35.82
2019-04-22T11:32:44.743Z,34.90
2019-04-22T11:35:13.971Z,37.33
2019-04-22T11:37:42.793Z,37.13
2019-04-22T11:40:29.812Z,37.50
2019-04-22T11:42:54.390Z,36.69
2019-04-22T11:45:24.325Z,31.61
2019-04-22T11:47:53.270Z,30.68
2019-04-22T11:50:24.216Z,31.32
2019-04-22T11:52:53.187Z,30.14
2019-04-22T11:55:22.711Z,29.05
2019-04-22T11:57:51.987Z,29.75
2019-04-22T12:00:27.026Z,30.40
2019-04-22T12:02:54.819Z,28.91
2019-04-22T12:05:23.832Z,29.39
2019-04-22T12:07:53.194Z,31.07
2019-04-22T12:10:33.281Z,27.23
2019-04-22T12:12:55.421Z,27.72
2019-04-22T12:15:24.726Z,27.98
2019-04-22T12:17:55.165Z,27.46
2019-04-22T12:20:25.489Z,26.07
2019-04-22T12:22:54.464Z,25.30
2019-04-22T12:25:34.742Z,26.65
2019-04-22T12:27:55.112Z,25.37
2019-04-22T12:30:25.622Z,24.36
2019-04-22T12:32:54.887Z,24.30
2019-04-22T12:35:24.320Z,24.22
2019-04-22T12:37:58.891Z,24.82
2019-04-22T12:40:33.808Z,24.98
2019-04-22T12:42:55.428Z,26.05
2019-04-22T12:45:24.666Z,28.70
2019-04-22T12:47:53.893Z,28.20
2019-04-22T12:50:28.318Z,27.00
2019-04-22T12:52:59.420Z,26.08
2019-04-22T12:55:25.837Z,24.76
2019-04-22T12:57:57.438Z,25.80
2019-04-22T13:00:27.471Z,26.17
2019-04-22T13:02:58.945Z,23.49
2019-04-22T13:05:29.103Z,23.33
2019-04-22T13:07:58.133Z,21.90
2019-04-22T13:10:39.098Z,21.84
2019-04-22T13:12:58.634Z,22.12
2019-04-22T13:15:28.849Z,22.58
2019-04-22T13:18:05.723Z,22.89
2019-04-22T13:20:28.328Z,22.94
2019-04-22T13:22:57.097Z,22.40
2019-04-22T13:25:28.425Z,22.07
2019-04-22T13:27:57.572Z,22.57
2019-04-22T13:30:28.403Z,22.07
2019-04-22T13:32:58.645Z,22.01
2019-04-22T13:35:28.103Z,22.24
2019-04-22T13:37:59.308Z,22.00
2019-04-22T13:40:28.714Z,21.73
2019-04-22T13:42:58.685Z,21.63
2019-04-22T13:45:27.870Z,21.44
2019-04-22T13:48:16.864Z,21.70
2019-04-22T13:51:00.962Z,22.25
2019-04-22T13:53:41.431Z,22.24
2019-04-22T13:55:59.269Z,22.21
2019-04-22T13:58:15.733Z,21.91
2019-04-22T14:00:34.587Z,21.81
2019-04-22T14:03:22.512Z,21.58
2019-04-22T14:05:55.768Z,21.15
2019-04-22T14:08:24.967Z,20.85
2019-04-22T14:10:54.439Z,20.59
2019-04-22T14:13:23.864Z,20.57
2019-04-22T14:15:52.963Z,20.38
2019-04-22T14:18:23.142Z,20.40
2019-04-22T14:20:52.068Z,20.22
2019-04-22T14:23:22.440Z,19.98
2019-04-22T14:25:52.800Z,19.94
2019-04-22T14:28:23.366Z,19.71
2019-04-22T14:30:52.677Z,19.70
2019-04-22T14:33:22.403Z,19.70
2019-04-22T14:35:52.732Z,19.65
2019-04-22T14:38:21.912Z,19.58
2019-04-22T14:40:51.919Z,19.59
2019-04-22T14:43:55.191Z,19.59
2019-04-22T14:46:20.485Z,19.55
2019-04-22T14:48:45.828Z,19.53
2019-04-22T14:51:11.650Z,19.62
2019-04-22T14:53:41.845Z,19.59
2019-04-22T14:55:52.936Z,19.44
2019-04-22T14:58:22.752Z,19.20
2019-04-22T15:00:53.716Z,19.03
2019-04-22T15:03:23.830Z,18.67
2019-04-22T15:05:52.662Z,18.40
2019-04-22T15:08:21.572Z,18.25
2019-04-22T15:10:51.654Z,18.03
2019-04-22T15:13:21.209Z,17.82
2019-04-22T15:15:53.406Z,17.88
2019-04-22T15:18:23.966Z,17.85
2019-04-22T15:21:00.736Z,18.01
2019-04-22T15:23:31.027Z,18.61
2019-04-22T15:25:59.802Z,18.74
2019-04-22T15:28:29.260Z,18.65
2019-04-22T15:30:59.366Z,18.59
2019-04-22T15:33:29.543Z,18.22
2019-04-22T15:35:59.044Z,17.94
2019-04-22T15:38:28.268Z,17.78
2019-04-22T15:40:58.672Z,17.68
2019-04-22T15:43:31.145Z,17.58
2019-04-22T15:46:00.490Z,17.55
2019-04-22T15:48:29.217Z,17.53
2019-04-22T15:50:58.744Z,17.57
2019-04-22T15:53:27.663Z,17.55
2019-04-22T15:55:56.681Z,17.33
2019-04-22T15:58:25.820Z,17.42
2019-04-22T16:01:08.137Z,17.35
2019-04-22T16:03:25.013Z,17.28
2019-04-22T16:05:54.426Z,17.14
2019-04-22T16:08:24.749Z,17.04
2019-04-22T16:10:53.832Z,16.96
2019-04-22T16:13:25.550Z,16.97
2019-04-22T16:15:54.321Z,16.96
2019-04-22T16:18:24.411Z,16.98
2019-04-22T16:20:54.322Z,16.78
2019-04-22T16:23:27.867Z,16.83
2019-04-22T16:25:56.709Z,16.83
2019-04-22T16:28:25.374Z,16.80
2019-04-22T16:30:55.323Z,16.69
2019-04-22T16:33:25.644Z,16.71
2019-04-22T16:35:55.063Z,16.62
2019-04-22T16:38:24.730Z,16.64
2019-04-22T16:40:54.717Z,16.62
2019-04-22T16:43:24.720Z,16.50
2019-04-22T16:45:53.899Z,16.44
2019-04-22T16:48:22.514Z,16.38
2019-04-22T16:50:52.698Z,15.85
2019-04-22T16:53:23.170Z,16.10
2019-04-22T16:55:52.984Z,16.02
2019-04-22T16:58:23.165Z,15.90
2019-04-22T17:00:52.551Z,15.76
2019-04-22T17:03:26.863Z,15.69
2019-04-22T17:06:13.860Z,15.64
2019-04-22T17:08:42.730Z,15.56
2019-04-22T17:11:11.755Z,15.50
2019-04-22T17:13:42.457Z,15.49
2019-04-22T17:16:11.940Z,15.45
2019-04-22T17:18:41.309Z,15.38
2019-04-22T17:21:11.073Z,15.31
2019-04-22T17:23:41.362Z,15.24
2019-04-22T17:26:12.551Z,15.18
2019-04-22T17:28:41.676Z,15.05
2019-04-22T17:31:10.898Z,14.91
2019-04-22T17:33:41.102Z,14.85
2019-04-22T17:36:11.799Z,14.75
2019-04-22T17:38:48.705Z,14.61
2019-04-22T17:41:22.022Z,14.54
2019-04-22T17:44:04.827Z,14.50
2019-04-22T17:46:44.524Z,14.42
2019-04-22T17:49:35.639Z,14.35
2019-04-22T17:52:17.682Z,14.35
2019-04-22T17:54:42.127Z,14.27
2019-04-22T17:57:09.521Z,14.21
2019-04-22T17:59:45.238Z,14.18
2019-04-22T18:02:11.168Z,14.14
2019-04-22T18:04:29.099Z,14.08
2019-04-22T18:07:27.951Z,14.01
2019-04-22T18:10:20.875Z,14.01
2019-04-22T18:12:25.782Z,13.97
2019-04-22T18:14:48.103Z,13.96
2019-04-22T18:17:17.345Z,13.93
2019-04-22T18:19:46.020Z,13.73
2019-04-22T18:22:12.289Z,13.85
2019-04-22T18:24:43.673Z,13.83
2019-04-22T18:27:34.792Z,13.79
2019-04-22T18:29:46.157Z,13.88
2019-04-22T18:32:10.126Z,13.83
2019-04-22T18:34:42.607Z,13.78
2019-04-22T18:37:16.699Z,13.71
2019-04-22T18:39:53.045Z,13.66
2019-04-22T18:42:17.941Z,13.66
2019-04-22T18:44:56.023Z,13.67
2019-04-22T18:47:18.837Z,13.64
2019-04-22T18:49:49.267Z,13.62
2019-04-22T18:52:31.885Z,13.57
2019-04-22T18:55:02.652Z,13.54
2019-04-22T18:57:45.068Z,13.51
2019-04-22T19:00:07.079Z,13.46
2019-04-22T19:02:37.616Z,13.41
2019-04-22T19:05:19.981Z,13.40
2019-04-22T19:08:06.931Z,13.37
2019-04-22T19:10:41.550Z,13.38
2019-04-22T19:13:22.257Z,13.35
2019-04-22T19:15:37.944Z,13.31
2019-04-22T19:18:12.717Z,13.28
2019-04-22T19:20:38.015Z,13.10
2019-04-22T19:23:08.879Z,13.21
2019-04-22T19:25:29.271Z,13.06
2019-04-22T19:28:14.186Z,13.14
2019-04-22T19:30:37.003Z,13.03
2019-04-22T19:33:13.844Z,13.04
2019-04-22T19:35:29.940Z,13.01
2019-04-22T19:38:00.100Z,12.97
2019-04-22T19:40:58.132Z,12.98
2019-04-22T19:43:15.403Z,12.93
2019-04-22T19:45:44.355Z,12.85
2019-04-22T19:48:27.172Z,12.81
2019-04-22T19:50:54.427Z,12.78
2019-04-22T19:53:17.808Z,12.77
2019-04-22T19:55:48.226Z,12.72
2019-04-22T19:58:17.714Z,12.68
2019-04-22T20:00:45.179Z,12.64
2019-04-22T20:03:29.628Z,12.55
2019-04-22T20:06:07.112Z,12.53
2019-04-22T20:08:34.199Z,12.50
2019-04-22T20:11:10.234Z,12.41
2019-04-22T20:13:41.390Z,12.34
2019-04-22T20:16:01.111Z,12.25
2019-04-22T20:18:48.659Z,12.24
2019-04-22T20:21:11.857Z,12.16
2019-04-22T20:23:35.119Z,12.08
2019-04-22T20:26:05.077Z,12.06
2019-04-22T20:28:44.910Z,12.02
2019-04-22T20:31:14.431Z,11.98
2019-04-22T20:33:44.491Z,11.98
2019-04-22T20:36:27.801Z,12.02
2019-04-22T20:38:43.811Z,11.91
2019-04-22T20:41:09.010Z,11.92
2019-04-22T20:43:46.939Z,11.92
2019-04-22T20:46:15.251Z,11.89
2019-04-22T20:48:50.277Z,11.87
2019-04-22T20:51:19.677Z,11.84
2019-04-22T20:53:50.011Z,11.78
2019-04-22T20:56:14.461Z,11.77
2019-04-22T20:58:46.537Z,11.61
2019-04-22T21:01:11.633Z,11.73
2019-04-22T21:03:37.389Z,11.57
2019-04-22T21:06:16.056Z,11.67
2019-04-22T21:08:52.353Z,11.58
2019-04-22T21:11:17.817Z,11.55
2019-04-22T21:13:48.616Z,11.45
2019-04-22T21:16:27.053Z,11.47
2019-04-22T21:18:46.232Z,11.43
2019-04-22T21:21:25.200Z,11.45
2019-04-22T21:23:45.776Z,11.41
2019-04-22T21:26:24.157Z,11.35
2019-04-22T21:28:53.829Z,11.32
2019-04-22T21:31:29.644Z,11.35
2019-04-22T21:33:59.729Z,11.30
2019-04-22T21:36:30.052Z,11.25
2019-04-22T21:38:53.224Z,11.22
2019-04-22T21:41:25.028Z,11.22
2019-04-22T21:43:58.221Z,11.24
2019-04-22T21:46:28.911Z,11.20
2019-04-22T21:49:04.029Z,11.08
2019-04-22T21:51:32.822Z,11.04
2019-04-22T21:54:04.248Z,10.98
2019-04-22T21:56:40.991Z,10.97
2019-04-22T21:59:07.941Z,10.90
2019-04-22T22:01:50.034Z,10.95
2019-04-22T22:04:15.210Z,11.00
2019-04-22T22:06:35.919Z,10.96
2019-04-22T22:09:15.534Z,10.94
2019-04-22T22:11:38.612Z,10.86
2019-04-22T22:14:13.589Z,10.86
2019-04-22T22:16:37.271Z,10.88
2019-04-22T22:19:11.131Z,10.91
2019-04-22T22:21:51.453Z,10.90
2019-04-22T22:24:18.522Z,10.88
2019-04-22T22:26:47.546Z,10.80
2019-04-22T22:29:32.147Z,10.77
2019-04-22T22:31:47.228Z,10.77
2019-04-22T22:34:16.633Z,10.77
2019-04-22T22:36:40.434Z,10.78
2019-04-22T22:39:11.434Z,10.69
2019-04-22T22:41:27.880Z,10.66
2019-04-22T22:44:03.202Z,10.64
2019-04-22T22:46:39.260Z,10.53
2019-04-22T22:49:23.702Z,10.45
2019-04-22T22:51:53.141Z,10.47
2019-04-22T22:54:25.144Z,10.38
2019-04-22T22:57:12.442Z,10.36
2019-04-22T22:59:25.196Z,10.30
2019-04-22T23:01:51.564Z,10.29
2019-04-22T23:04:23.368Z,10.21
2019-04-22T23:06:56.209Z,10.17
2019-04-22T23:09:19.201Z,10.09
2019-04-22T23:12:18.732Z,10.11
2019-04-22T23:14:23.293Z,10.10
2019-04-22T23:16:42.973Z,10.08
2019-04-22T23:19:04.476Z,10.01
2019-04-22T23:21:39.742Z,9.98
2019-04-22T23:24:22.666Z,9.97
2019-04-22T23:26:56.669Z,9.96
2019-04-22T23:29:25.376Z,9.90
2019-04-22T23:32:00.263Z,9.91
2019-04-22T23:34:26.609Z,9.83
2019-04-22T23:37:19.129Z,9.80
2019-04-22T23:42:41.412Z,9.72
2019-04-22T23:44:56.374Z,9.73
2019-04-22T23:47:24.307Z,9.65
2019-04-22T23:49:56.506Z,9.58
2019-04-22T23:52:30.485Z,9.52
2019-04-22T23:55:10.156Z,9.46
2019-04-22T23:57:55.556Z,9.45
